sensor_id;sensor_type;location;lat;lon;timestamp;P1;durP1;ratioP1;P2;durP2;ratioP2
11034;SDS011;5571;48.110;-1.706;2023-05-03T00:02:14;5.67;;;4.20;;
11034;SDS011;5571;48.110;-1.706;2023-05-03T00:04:40;4.97;;;4.40;;
11034;SDS011;5571;48.110;-1.706;2023-05-03T00:07:06;4.43;;;3.83;;
11034;SDS011;5571;48.110;-1.706;2023-05-03T00:09:32;6.00;;;4.23;;
11034;SDS011;5571;48.110;-1.706;2023-05-03T00:11:59;6.07;;;4.30;;
11034;SDS011;5571;48.110;-1.706;2023-05-03T00:14:25;6.90;;;4.23;;
11034;SDS011;5571;48.110;-1.706;2023-05-03T00:16:51;5.03;;;4.10;;
11034;SDS011;5571;48.110;-1.706;2023-05-03T00:19:17;4.60;;;4.07;;
11034;SDS011;5571;48.110;-1.706;2023-05-03T00:21:43;5.83;;;4.30;;
11034;SDS011;5571;48.110;-1.706;2023-05-03T00:24:10;4.77;;;4.33;;
11034;SDS011;5571;48.110;-1.706;2023-05-03T00:26:35;6.07;;;4.10;;
11034;SDS011;5571;48.110;-1.706;2023-05-03T00:29:01;5.70;;;4.00;;
11034;SDS011;5571;48.110;-1.706;2023-05-03T00:31:27;5.70;;;4.70;;
11034;SDS011;5571;48.110;-1.706;2023-05-03T00:33:53;4.87;;;4.40;;
11034;SDS011;5571;48.110;-1.706;2023-05-03T00:36:18;6.03;;;4.30;;
11034;SDS011;5571;48.110;-1.706;2023-05-03T00:38:44;4.73;;;4.23;;
11034;SDS011;5571;48.110;-1.706;2023-05-03T00:41:10;6.23;;;4.40;;
11034;SDS011;5571;48.110;-1.706;2023-05-03T00:43:37;5.47;;;4.40;;
11034;SDS011;5571;48.110;-1.706;2023-05-03T00:46:04;4.87;;;4.40;;
11034;SDS011;5571;48.110;-1.706;2023-05-03T00:48:32;5.10;;;4.27;;
11034;SDS011;5571;48.110;-1.706;2023-05-03T00:50:59;7.93;;;4.47;;
11034;SDS011;5571;48.110;-1.706;2023-05-03T00:53:26;4.97;;;4.47;;
11034;SDS011;5571;48.110;-1.706;2023-05-03T00:55:53;6.63;;;4.37;;
11034;SDS011;5571;48.110;-1.706;2023-05-03T00:58:20;5.57;;;4.30;;
11034;SDS011;5571;48.110;-1.706;2023-05-03T01:00:48;6.83;;;4.50;;
11034;SDS011;5571;48.110;-1.706;2023-05-03T01:03:14;5.13;;;4.63;;
11034;SDS011;5571;48.110;-1.706;2023-05-03T01:05:47;4.77;;;4.37;;
11034;SDS011;5571;48.110;-1.706;2023-05-03T01:08:33;6.03;;;4.57;;
11034;SDS011;5571;48.110;-1.706;2023-05-03T01:13:46;9.60;;;4.90;;
11034;SDS011;5571;48.110;-1.706;2023-05-03T01:18:53;8.70;;;4.87;;
11034;SDS011;5571;48.110;-1.706;2023-05-03T01:21:21;6.73;;;4.77;;
11034;SDS011;5571;48.110;-1.706;2023-05-03T01:26:45;6.00;;;4.77;;
11034;SDS011;5571;48.110;-1.706;2023-05-03T01:29:11;8.93;;;4.63;;
11034;SDS011;5571;48.110;-1.706;2023-05-03T01:31:43;7.20;;;5.17;;
11034;SDS011;5571;48.110;-1.706;2023-05-03T01:37:13;5.33;;;4.77;;
11034;SDS011;5571;48.110;-1.706;2023-05-03T01:39:49;6.00;;;5.03;;
11034;SDS011;5571;48.110;-1.706;2023-05-03T01:42:22;6.10;;;4.93;;
11034;SDS011;5571;48.110;-1.706;2023-05-03T01:44:48;7.10;;;5.20;;
11034;SDS011;5571;48.110;-1.706;2023-05-03T01:47:14;8.90;;;5.10;;
11034;SDS011;5571;48.110;-1.706;2023-05-03T01:49:41;7.30;;;5.27;;
11034;SDS011;5571;48.110;-1.706;2023-05-03T01:52:07;8.63;;;5.50;;
11034;SDS011;5571;48.110;-1.706;2023-05-03T01:54:32;5.90;;;5.10;;
11034;SDS011;5571;48.110;-1.706;2023-05-03T01:56:58;9.53;;;6.63;;
11034;SDS011;5571;48.110;-1.706;2023-05-03T01:59:24;9.37;;;5.87;;
11034;SDS011;5571;48.110;-1.706;2023-05-03T02:01:49;11.27;;;7.40;;
11034;SDS011;5571;48.110;-1.706;2023-05-03T02:04:15;10.20;;;6.30;;
11034;SDS011;5571;48.110;-1.706;2023-05-03T02:06:40;7.80;;;5.93;;
11034;SDS011;5571;48.110;-1.706;2023-05-03T02:09:06;8.17;;;5.20;;
11034;SDS011;5571;48.110;-1.706;2023-05-03T02:11:32;8.07;;;5.47;;
11034;SDS011;5571;48.110;-1.706;2023-05-03T02:13:58;6.17;;;5.03;;
11034;SDS011;5571;48.110;-1.706;2023-05-03T02:16:23;5.90;;;4.90;;
11034;SDS011;5571;48.110;-1.706;2023-05-03T02:18:50;6.53;;;5.20;;
11034;SDS011;5571;48.110;-1.706;2023-05-03T02:21:15;8.13;;;5.57;;
11034;SDS011;5571;48.110;-1.706;2023-05-03T02:23:41;6.80;;;5.23;;
11034;SDS011;5571;48.110;-1.706;2023-05-03T02:26:07;8.23;;;5.53;;
11034;SDS011;5571;48.110;-1.706;2023-05-03T02:28:32;5.90;;;5.30;;
11034;SDS011;5571;48.110;-1.706;2023-05-03T02:30:59;5.83;;;5.00;;
11034;SDS011;5571;48.110;-1.706;2023-05-03T02:33:24;6.57;;;5.30;;
11034;SDS011;5571;48.110;-1.706;2023-05-03T02:35:50;11.27;;;5.87;;
11034;SDS011;5571;48.110;-1.706;2023-05-03T02:38:16;8.03;;;5.63;;
11034;SDS011;5571;48.110;-1.706;2023-05-03T02:40:41;7.97;;;5.67;;
11034;SDS011;5571;48.110;-1.706;2023-05-03T02:43:07;6.20;;;5.53;;
11034;SDS011;5571;48.110;-1.706;2023-05-03T02:45:36;9.67;;;6.37;;
11034;SDS011;5571;48.110;-1.706;2023-05-03T02:48:02;7.00;;;5.73;;
11034;SDS011;5571;48.110;-1.706;2023-05-03T02:50:27;9.27;;;5.67;;
11034;SDS011;5571;48.110;-1.706;2023-05-03T02:52:53;7.97;;;5.83;;
11034;SDS011;5571;48.110;-1.706;2023-05-03T02:55:19;8.17;;;6.00;;
11034;SDS011;5571;48.110;-1.706;2023-05-03T02:57:44;9.20;;;5.90;;
11034;SDS011;5571;48.110;-1.706;2023-05-03T03:00:10;7.63;;;5.67;;
11034;SDS011;5571;48.110;-1.706;2023-05-03T03:02:39;10.70;;;6.23;;
11034;SDS011;5571;48.110;-1.706;2023-05-03T03:05:05;7.73;;;6.00;;
11034;SDS011;5571;48.110;-1.706;2023-05-03T03:07:32;7.90;;;6.47;;
11034;SDS011;5571;48.110;-1.706;2023-05-03T03:09:58;7.80;;;6.53;;
11034;SDS011;5571;48.110;-1.706;2023-05-03T03:12:25;8.83;;;7.00;;
11034;SDS011;5571;48.110;-1.706;2023-05-03T03:14:52;6.77;;;5.40;;
11034;SDS011;5571;48.110;-1.706;2023-05-03T03:17:18;8.53;;;6.60;;
11034;SDS011;5571;48.110;-1.706;2023-05-03T03:19:44;7.23;;;6.50;;
11034;SDS011;5571;48.110;-1.706;2023-05-03T03:22:09;9.23;;;6.17;;
11034;SDS011;5571;48.110;-1.706;2023-05-03T03:24:35;10.37;;;6.30;;
11034;SDS011;5571;48.110;-1.706;2023-05-03T03:27:01;11.50;;;6.27;;
11034;SDS011;5571;48.110;-1.706;2023-05-03T03:29:28;9.73;;;6.57;;
11034;SDS011;5571;48.110;-1.706;2023-05-03T03:31:55;9.50;;;6.70;;
11034;SDS011;5571;48.110;-1.706;2023-05-03T03:34:21;10.23;;;6.80;;
11034;SDS011;5571;48.110;-1.706;2023-05-03T03:36:47;8.93;;;7.13;;
11034;SDS011;5571;48.110;-1.706;2023-05-03T03:39:12;12.10;;;6.73;;
11034;SDS011;5571;48.110;-1.706;2023-05-03T03:41:38;10.73;;;7.07;;
11034;SDS011;5571;48.110;-1.706;2023-05-03T03:44:04;9.13;;;7.57;;
11034;SDS011;5571;48.110;-1.706;2023-05-03T03:46:29;11.17;;;7.50;;
11034;SDS011;5571;48.110;-1.706;2023-05-03T03:48:55;9.50;;;7.23;;
11034;SDS011;5571;48.110;-1.706;2023-05-03T03:51:21;13.60;;;7.83;;
11034;SDS011;5571;48.110;-1.706;2023-05-03T03:53:46;10.60;;;7.00;;
11034;SDS011;5571;48.110;-1.706;2023-05-03T03:56:12;10.60;;;7.73;;
11034;SDS011;5571;48.110;-1.706;2023-05-03T03:58:37;10.97;;;7.03;;
11034;SDS011;5571;48.110;-1.706;2023-05-03T04:01:03;9.27;;;7.07;;
11034;SDS011;5571;48.110;-1.706;2023-05-03T04:03:29;13.43;;;7.07;;
11034;SDS011;5571;48.110;-1.706;2023-05-03T04:05:55;9.17;;;6.83;;
11034;SDS011;5571;48.110;-1.706;2023-05-03T04:08:20;8.93;;;6.90;;
11034;SDS011;5571;48.110;-1.706;2023-05-03T04:10:46;9.30;;;6.70;;
11034;SDS011;5571;48.110;-1.706;2023-05-03T04:13:12;9.77;;;7.03;;
11034;SDS011;5571;48.110;-1.706;2023-05-03T04:15:37;11.73;;;7.57;;
11034;SDS011;5571;48.110;-1.706;2023-05-03T04:18:03;8.60;;;7.30;;
11034;SDS011;5571;48.110;-1.706;2023-05-03T04:20:30;9.40;;;7.53;;
11034;SDS011;5571;48.110;-1.706;2023-05-03T04:22:56;10.23;;;7.40;;
11034;SDS011;5571;48.110;-1.706;2023-05-03T04:25:22;10.40;;;7.70;;
11034;SDS011;5571;48.110;-1.706;2023-05-03T04:27:49;13.27;;;7.67;;
11034;SDS011;5571;48.110;-1.706;2023-05-03T04:30:15;12.53;;;8.80;;
11034;SDS011;5571;48.110;-1.706;2023-05-03T04:32:41;14.87;;;7.90;;
11034;SDS011;5571;48.110;-1.706;2023-05-03T04:35:08;11.47;;;8.00;;
11034;SDS011;5571;48.110;-1.706;2023-05-03T04:37:37;12.00;;;7.87;;
11034;SDS011;5571;48.110;-1.706;2023-05-03T04:40:04;13.37;;;8.40;;
11034;SDS011;5571;48.110;-1.706;2023-05-03T04:42:36;11.80;;;7.73;;
11034;SDS011;5571;48.110;-1.706;2023-05-03T04:45:02;9.37;;;8.37;;
11034;SDS011;5571;48.110;-1.706;2023-05-03T04:47:31;13.03;;;8.50;;
11034;SDS011;5571;48.110;-1.706;2023-05-03T04:49:57;12.13;;;8.40;;
11034;SDS011;5571;48.110;-1.706;2023-05-03T04:52:23;13.27;;;8.40;;
11034;SDS011;5571;48.110;-1.706;2023-05-03T04:54:50;10.40;;;8.80;;
11034;SDS011;5571;48.110;-1.706;2023-05-03T04:57:16;11.57;;;8.57;;
11034;SDS011;5571;48.110;-1.706;2023-05-03T04:59:42;11.23;;;9.13;;
11034;SDS011;5571;48.110;-1.706;2023-05-03T05:02:07;12.07;;;8.80;;
11034;SDS011;5571;48.110;-1.706;2023-05-03T05:04:33;11.93;;;8.83;;
11034;SDS011;5571;48.110;-1.706;2023-05-03T05:06:59;12.87;;;9.57;;
11034;SDS011;5571;48.110;-1.706;2023-05-03T05:09:26;10.37;;;9.03;;
11034;SDS011;5571;48.110;-1.706;2023-05-03T05:11:52;10.50;;;9.20;;
11034;SDS011;5571;48.110;-1.706;2023-05-03T05:14:18;13.13;;;9.60;;
11034;SDS011;5571;48.110;-1.706;2023-05-03T05:16:44;13.93;;;9.80;;
11034;SDS011;5571;48.110;-1.706;2023-05-03T05:19:10;9.97;;;8.97;;
11034;SDS011;5571;48.110;-1.706;2023-05-03T05:21:37;14.93;;;9.40;;
11034;SDS011;5571;48.110;-1.706;2023-05-03T05:24:03;12.43;;;9.73;;
11034;SDS011;5571;48.110;-1.706;2023-05-03T05:26:29;11.53;;;10.17;;
11034;SDS011;5571;48.110;-1.706;2023-05-03T05:28:55;12.40;;;9.70;;
11034;SDS011;5571;48.110;-1.706;2023-05-03T05:31:20;10.60;;;9.20;;
11034;SDS011;5571;48.110;-1.706;2023-05-03T05:33:46;13.37;;;9.43;;
11034;SDS011;5571;48.110;-1.706;2023-05-03T05:36:12;13.70;;;10.10;;
11034;SDS011;5571;48.110;-1.706;2023-05-03T05:38:38;11.83;;;9.43;;
11034;SDS011;5571;48.110;-1.706;2023-05-03T05:41:04;13.07;;;9.33;;
11034;SDS011;5571;48.110;-1.706;2023-05-03T05:43:30;13.37;;;9.20;;
11034;SDS011;5571;48.110;-1.706;2023-05-03T05:45:56;10.17;;;9.07;;
11034;SDS011;5571;48.110;-1.706;2023-05-03T05:48:22;10.03;;;9.03;;
11034;SDS011;5571;48.110;-1.706;2023-05-03T05:50:48;16.70;;;10.17;;
11034;SDS011;5571;48.110;-1.706;2023-05-03T05:53:13;14.00;;;8.97;;
11034;SDS011;5571;48.110;-1.706;2023-05-03T05:55:39;10.40;;;9.30;;
11034;SDS011;5571;48.110;-1.706;2023-05-03T05:58:05;12.80;;;8.97;;
11034;SDS011;5571;48.110;-1.706;2023-05-03T06:00:30;14.03;;;9.90;;
11034;SDS011;5571;48.110;-1.706;2023-05-03T06:02:56;10.87;;;9.53;;
11034;SDS011;5571;48.110;-1.706;2023-05-03T06:05:22;13.67;;;9.63;;
11034;SDS011;5571;48.110;-1.706;2023-05-03T06:07:48;15.07;;;10.00;;
11034;SDS011;5571;48.110;-1.706;2023-05-03T06:10:14;10.80;;;9.70;;
11034;SDS011;5571;48.110;-1.706;2023-05-03T06:12:39;14.27;;;9.57;;
11034;SDS011;5571;48.110;-1.706;2023-05-03T06:15:05;13.00;;;10.07;;
11034;SDS011;5571;48.110;-1.706;2023-05-03T06:17:32;12.17;;;9.03;;
11034;SDS011;5571;48.110;-1.706;2023-05-03T06:19:58;12.23;;;9.10;;
11034;SDS011;5571;48.110;-1.706;2023-05-03T06:22:24;9.77;;;8.77;;
11034;SDS011;5571;48.110;-1.706;2023-05-03T06:24:50;15.43;;;9.40;;
11034;SDS011;5571;48.110;-1.706;2023-05-03T06:27:17;10.90;;;9.77;;
11034;SDS011;5571;48.110;-1.706;2023-05-03T06:29:43;11.37;;;8.50;;
11034;SDS011;5571;48.110;-1.706;2023-05-03T06:32:09;10.27;;;9.17;;
11034;SDS011;5571;48.110;-1.706;2023-05-03T06:34:35;11.80;;;8.80;;
11034;SDS011;5571;48.110;-1.706;2023-05-03T06:37:01;12.60;;;8.43;;
11034;SDS011;5571;48.110;-1.706;2023-05-03T06:39:27;12.87;;;8.50;;
11034;SDS011;5571;48.110;-1.706;2023-05-03T06:41:53;13.23;;;8.27;;
11034;SDS011;5571;48.110;-1.706;2023-05-03T06:44:18;12.20;;;7.63;;
11034;SDS011;5571;48.110;-1.706;2023-05-03T06:46:44;11.47;;;8.10;;
11034;SDS011;5571;48.110;-1.706;2023-05-03T06:49:10;12.90;;;8.07;;
11034;SDS011;5571;48.110;-1.706;2023-05-03T06:51:35;9.53;;;7.47;;
11034;SDS011;5571;48.110;-1.706;2023-05-03T06:54:01;12.20;;;8.07;;
11034;SDS011;5571;48.110;-1.706;2023-05-03T06:56:33;14.63;;;7.20;;
11034;SDS011;5571;48.110;-1.706;2023-05-03T06:59:00;9.43;;;7.27;;
11034;SDS011;5571;48.110;-1.706;2023-05-03T07:01:29;10.40;;;7.23;;
11034;SDS011;5571;48.110;-1.706;2023-05-03T07:03:55;8.20;;;7.40;;
11034;SDS011;5571;48.110;-1.706;2023-05-03T07:06:22;10.53;;;7.03;;
11034;SDS011;5571;48.110;-1.706;2023-05-03T07:08:51;12.87;;;6.90;;
11034;SDS011;5571;48.110;-1.706;2023-05-03T07:11:18;11.13;;;7.10;;
11034;SDS011;5571;48.110;-1.706;2023-05-03T07:13:48;11.63;;;6.63;;
11034;SDS011;5571;48.110;-1.706;2023-05-03T07:16:18;10.07;;;6.10;;
11034;SDS011;5571;48.110;-1.706;2023-05-03T07:18:44;12.10;;;6.10;;
11034;SDS011;5571;48.110;-1.706;2023-05-03T07:21:11;11.40;;;6.30;;
11034;SDS011;5571;48.110;-1.706;2023-05-03T07:23:37;12.77;;;6.10;;
11034;SDS011;5571;48.110;-1.706;2023-05-03T07:26:03;8.77;;;5.40;;
11034;SDS011;5571;48.110;-1.706;2023-05-03T07:28:29;6.20;;;5.53;;
11034;SDS011;5571;48.110;-1.706;2023-05-03T07:30:54;11.43;;;5.80;;
11034;SDS011;5571;48.110;-1.706;2023-05-03T07:33:20;7.50;;;5.30;;
11034;SDS011;5571;48.110;-1.706;2023-05-03T07:35:46;6.00;;;5.40;;
11034;SDS011;5571;48.110;-1.706;2023-05-03T07:38:13;11.03;;;5.77;;
11034;SDS011;5571;48.110;-1.706;2023-05-03T07:40:39;5.80;;;4.90;;
11034;SDS011;5571;48.110;-1.706;2023-05-03T07:43:05;7.53;;;5.10;;
11034;SDS011;5571;48.110;-1.706;2023-05-03T07:45:34;9.93;;;5.53;;
11034;SDS011;5571;48.110;-1.706;2023-05-03T07:48:00;9.53;;;4.90;;
11034;SDS011;5571;48.110;-1.706;2023-05-03T07:50:25;8.53;;;5.20;;
11034;SDS011;5571;48.110;-1.706;2023-05-03T07:52:51;7.23;;;4.87;;
11034;SDS011;5571;48.110;-1.706;2023-05-03T07:55:17;8.13;;;4.60;;
11034;SDS011;5571;48.110;-1.706;2023-05-03T07:57:44;7.73;;;5.10;;
11034;SDS011;5571;48.110;-1.706;2023-05-03T08:00:10;11.40;;;4.57;;
11034;SDS011;5571;48.110;-1.706;2023-05-03T08:02:37;9.40;;;4.27;;
11034;SDS011;5571;48.110;-1.706;2023-05-03T08:05:03;7.60;;;4.60;;
11034;SDS011;5571;48.110;-1.706;2023-05-03T08:07:29;5.23;;;4.30;;
11034;SDS011;5571;48.110;-1.706;2023-05-03T08:09:55;7.57;;;4.30;;
11034;SDS011;5571;48.110;-1.706;2023-05-03T08:12:25;4.47;;;4.07;;
11034;SDS011;5571;48.110;-1.706;2023-05-03T08:14:51;6.70;;;4.20;;
11034;SDS011;5571;48.110;-1.706;2023-05-03T08:17:18;6.23;;;4.20;;
11034;SDS011;5571;48.110;-1.706;2023-05-03T08:19:44;7.13;;;4.60;;
11034;SDS011;5571;48.110;-1.706;2023-05-03T08:22:11;6.63;;;4.20;;
11034;SDS011;5571;48.110;-1.706;2023-05-03T08:24:37;4.20;;;3.60;;
11034;SDS011;5571;48.110;-1.706;2023-05-03T08:27:03;5.40;;;3.90;;
11034;SDS011;5571;48.110;-1.706;2023-05-03T08:29:29;6.83;;;4.03;;
11034;SDS011;5571;48.110;-1.706;2023-05-03T08:31:56;9.90;;;4.13;;
11034;SDS011;5571;48.110;-1.706;2023-05-03T08:34:22;9.07;;;4.00;;
11034;SDS011;5571;48.110;-1.706;2023-05-03T08:36:48;7.67;;;3.90;;
11034;SDS011;5571;48.110;-1.706;2023-05-03T08:39:13;10.10;;;4.13;;
11034;SDS011;5571;48.110;-1.706;2023-05-03T08:41:39;6.23;;;3.83;;
11034;SDS011;5571;48.110;-1.706;2023-05-03T08:44:05;7.57;;;3.85;;
11034;SDS011;5571;48.110;-1.706;2023-05-03T08:46:34;6.73;;;3.73;;
11034;SDS011;5571;48.110;-1.706;2023-05-03T08:49:03;6.83;;;3.70;;
11034;SDS011;5571;48.110;-1.706;2023-05-03T08:51:30;6.95;;;3.80;;
11034;SDS011;5571;48.110;-1.706;2023-05-03T08:53:58;4.22;;;3.83;;
11034;SDS011;5571;48.110;-1.706;2023-05-03T08:56:27;7.07;;;3.87;;
11034;SDS011;5571;48.110;-1.706;2023-05-03T08:58:54;5.55;;;3.70;;
11034;SDS011;5571;48.110;-1.706;2023-05-03T09:01:20;4.78;;;3.50;;
11034;SDS011;5571;48.110;-1.706;2023-05-03T09:03:49;6.35;;;3.42;;
11034;SDS011;5571;48.110;-1.706;2023-05-03T09:06:22;4.28;;;3.67;;
11034;SDS011;5571;48.110;-1.706;2023-05-03T09:08:50;9.18;;;3.47;;
11034;SDS011;5571;48.110;-1.706;2023-05-03T09:11:23;3.42;;;3.13;;
11034;SDS011;5571;48.110;-1.706;2023-05-03T09:13:51;5.70;;;3.80;;
11034;SDS011;5571;48.110;-1.706;2023-05-03T09:16:24;5.75;;;3.72;;
11034;SDS011;5571;48.110;-1.706;2023-05-03T09:19:03;8.27;;;3.70;;
11034;SDS011;5571;48.110;-1.706;2023-05-03T09:21:33;4.70;;;3.63;;
11034;SDS011;5571;48.110;-1.706;2023-05-03T09:24:00;7.15;;;3.75;;
11034;SDS011;5571;48.110;-1.706;2023-05-03T09:28:56;11.80;;;3.78;;
11034;SDS011;5571;48.110;-1.706;2023-05-03T09:31:26;4.50;;;3.35;;
11034;SDS011;5571;48.110;-1.706;2023-05-03T09:33:56;4.32;;;3.17;;
11034;SDS011;5571;48.110;-1.706;2023-05-03T09:36:22;6.78;;;3.38;;
11034;SDS011;5571;48.110;-1.706;2023-05-03T09:38:49;5.93;;;3.78;;
11034;SDS011;5571;48.110;-1.706;2023-05-03T09:41:15;5.18;;;3.72;;
11034;SDS011;5571;48.110;-1.706;2023-05-03T09:43:51;5.68;;;3.90;;
11034;SDS011;5571;48.110;-1.706;2023-05-03T09:46:19;4.78;;;3.42;;
11034;SDS011;5571;48.110;-1.706;2023-05-03T09:48:45;4.13;;;3.72;;
11034;SDS011;5571;48.110;-1.706;2023-05-03T09:51:11;7.25;;;3.60;;
11034;SDS011;5571;48.110;-1.706;2023-05-03T09:53:39;6.38;;;3.20;;
11034;SDS011;5571;48.110;-1.706;2023-05-03T09:56:06;6.75;;;3.05;;
11034;SDS011;5571;48.110;-1.706;2023-05-03T09:58:36;6.57;;;3.13;;
11034;SDS011;5571;48.110;-1.706;2023-05-03T10:01:02;3.72;;;3.25;;
11034;SDS011;5571;48.110;-1.706;2023-05-03T10:03:42;7.95;;;3.55;;
11034;SDS011;5571;48.110;-1.706;2023-05-03T10:11:31;4.30;;;3.35;;
11034;SDS011;5571;48.110;-1.706;2023-05-03T10:13:58;4.45;;;3.22;;
11034;SDS011;5571;48.110;-1.706;2023-05-03T10:16:32;5.18;;;3.20;;
11034;SDS011;5571;48.110;-1.706;2023-05-03T10:19:07;4.63;;;3.13;;
11034;SDS011;5571;48.110;-1.706;2023-05-03T10:21:41;4.82;;;2.83;;
11034;SDS011;5571;48.110;-1.706;2023-05-03T10:24:30;7.40;;;3.95;;
11034;SDS011;5571;48.110;-1.706;2023-05-03T10:26:57;8.18;;;3.88;;
11034;SDS011;5571;48.110;-1.706;2023-05-03T10:32:04;4.32;;;3.20;;
11034;SDS011;5571;48.110;-1.706;2023-05-03T10:34:55;8.88;;;3.53;;
11034;SDS011;5571;48.110;-1.706;2023-05-03T10:37:24;4.90;;;3.58;;
11034;SDS011;5571;48.110;-1.706;2023-05-03T10:39:54;3.55;;;3.08;;
11034;SDS011;5571;48.110;-1.706;2023-05-03T10:42:21;4.35;;;3.20;;
11034;SDS011;5571;48.110;-1.706;2023-05-03T10:44:50;7.07;;;3.60;;
11034;SDS011;5571;48.110;-1.706;2023-05-03T10:47:18;5.50;;;2.97;;
11034;SDS011;5571;48.110;-1.706;2023-05-03T10:55:13;4.93;;;2.83;;
11034;SDS011;5571;48.110;-1.706;2023-05-03T10:57:43;5.53;;;3.25;;
11034;SDS011;5571;48.110;-1.706;2023-05-03T11:00:18;12.20;;;3.70;;
11034;SDS011;5571;48.110;-1.706;2023-05-03T11:05:39;3.30;;;3.00;;
11034;SDS011;5571;48.110;-1.706;2023-05-03T11:08:24;5.65;;;2.90;;
11034;SDS011;5571;48.110;-1.706;2023-05-03T11:11:00;5.50;;;2.97;;
11034;SDS011;5571;48.110;-1.706;2023-05-03T11:13:26;3.47;;;3.00;;
11034;SDS011;5571;48.110;-1.706;2023-05-03T11:15:54;3.97;;;3.08;;
11034;SDS011;5571;48.110;-1.706;2023-05-03T11:18:20;7.70;;;3.05;;
11034;SDS011;5571;48.110;-1.706;2023-05-03T11:20:47;6.22;;;3.03;;
11034;SDS011;5571;48.110;-1.706;2023-05-03T11:23:13;4.72;;;2.88;;
11034;SDS011;5571;48.110;-1.706;2023-05-03T11:25:39;7.85;;;3.17;;
11034;SDS011;5571;48.110;-1.706;2023-05-03T11:28:05;8.55;;;2.90;;
11034;SDS011;5571;48.110;-1.706;2023-05-03T11:30:32;3.83;;;2.78;;
11034;SDS011;5571;48.110;-1.706;2023-05-03T11:33:01;3.63;;;3.00;;
11034;SDS011;5571;48.110;-1.706;2023-05-03T11:35:27;5.80;;;2.97;;
11034;SDS011;5571;48.110;-1.706;2023-05-03T11:37:54;5.25;;;3.22;;
11034;SDS011;5571;48.110;-1.706;2023-05-03T11:40:20;4.72;;;2.88;;
11034;SDS011;5571;48.110;-1.706;2023-05-03T11:43:04;7.25;;;3.05;;
11034;SDS011;5571;48.110;-1.706;2023-05-03T11:45:39;3.35;;;2.90;;
11034;SDS011;5571;48.110;-1.706;2023-05-03T11:48:07;6.50;;;3.08;;
11034;SDS011;5571;48.110;-1.706;2023-05-03T11:50:47;3.38;;;3.00;;
11034;SDS011;5571;48.110;-1.706;2023-05-03T11:53:20;3.92;;;2.75;;
11034;SDS011;5571;48.110;-1.706;2023-05-03T11:55:50;5.63;;;3.08;;
11034;SDS011;5571;48.110;-1.706;2023-05-03T11:58:21;7.60;;;2.90;;
11034;SDS011;5571;48.110;-1.706;2023-05-03T12:00:52;3.10;;;2.90;;
11034;SDS011;5571;48.110;-1.706;2023-05-03T12:05:49;6.80;;;3.13;;
11034;SDS011;5571;48.110;-1.706;2023-05-03T12:08:19;3.90;;;2.85;;
11034;SDS011;5571;48.110;-1.706;2023-05-03T12:10:45;5.93;;;3.30;;
11034;SDS011;5571;48.110;-1.706;2023-05-03T12:13:12;8.15;;;2.92;;
11034;SDS011;5571;48.110;-1.706;2023-05-03T12:15:38;3.85;;;2.90;;
11034;SDS011;5571;48.110;-1.706;2023-05-03T12:18:05;10.73;;;3.28;;
11034;SDS011;5571;48.110;-1.706;2023-05-03T12:20:35;3.08;;;2.70;;
11034;SDS011;5571;48.110;-1.706;2023-05-03T12:23:05;2.80;;;2.60;;
11034;SDS011;5571;48.110;-1.706;2023-05-03T12:25:32;5.53;;;3.05;;
11034;SDS011;5571;48.110;-1.706;2023-05-03T12:27:59;5.85;;;2.75;;
11034;SDS011;5571;48.110;-1.706;2023-05-03T12:30:30;7.45;;;2.70;;
11034;SDS011;5571;48.110;-1.706;2023-05-03T12:32:56;4.10;;;2.60;;
11034;SDS011;5571;48.110;-1.706;2023-05-03T12:35:22;4.53;;;2.75;;
11034;SDS011;5571;48.110;-1.706;2023-05-03T12:37:48;5.30;;;2.38;;
11034;SDS011;5571;48.110;-1.706;2023-05-03T12:40:15;3.00;;;2.70;;
11034;SDS011;5571;48.110;-1.706;2023-05-03T12:42:42;5.63;;;2.80;;
11034;SDS011;5571;48.110;-1.706;2023-05-03T12:45:08;5.60;;;2.80;;
11034;SDS011;5571;48.110;-1.706;2023-05-03T12:47:35;3.65;;;2.65;;
11034;SDS011;5571;48.110;-1.706;2023-05-03T12:50:01;2.83;;;2.53;;
11034;SDS011;5571;48.110;-1.706;2023-05-03T12:52:28;2.90;;;2.67;;
11034;SDS011;5571;48.110;-1.706;2023-05-03T12:54:57;5.47;;;2.90;;
11034;SDS011;5571;48.110;-1.706;2023-05-03T12:57:23;4.90;;;2.97;;
11034;SDS011;5571;48.110;-1.706;2023-05-03T12:59:49;3.00;;;2.70;;
11034;SDS011;5571;48.110;-1.706;2023-05-03T13:02:17;3.58;;;2.30;;
11034;SDS011;5571;48.110;-1.706;2023-05-03T13:04:46;3.30;;;2.70;;
11034;SDS011;5571;48.110;-1.706;2023-05-03T13:07:20;6.65;;;2.70;;
11034;SDS011;5571;48.110;-1.706;2023-05-03T13:09:46;3.53;;;2.90;;
11034;SDS011;5571;48.110;-1.706;2023-05-03T13:12:12;4.35;;;2.83;;
11034;SDS011;5571;48.110;-1.706;2023-05-03T13:14:38;8.85;;;2.72;;
11034;SDS011;5571;48.110;-1.706;2023-05-03T13:17:05;5.63;;;2.78;;
11034;SDS011;5571;48.110;-1.706;2023-05-03T13:19:30;3.05;;;2.47;;
11034;SDS011;5571;48.110;-1.706;2023-05-03T13:21:56;4.47;;;2.97;;
11034;SDS011;5571;48.110;-1.706;2023-05-03T13:24:21;7.93;;;3.03;;
11034;SDS011;5571;48.110;-1.706;2023-05-03T13:26:47;6.18;;;2.70;;
11034;SDS011;5571;48.110;-1.706;2023-05-03T13:29:12;2.90;;;2.63;;
11034;SDS011;5571;48.110;-1.706;2023-05-03T13:31:38;3.70;;;2.50;;
11034;SDS011;5571;48.110;-1.706;2023-05-03T13:34:04;5.10;;;3.35;;
11034;SDS011;5571;48.110;-1.706;2023-05-03T13:36:30;3.00;;;2.25;;
11034;SDS011;5571;48.110;-1.706;2023-05-03T13:38:57;7.07;;;2.58;;
11034;SDS011;5571;48.110;-1.706;2023-05-03T13:41:23;2.75;;;2.55;;
11034;SDS011;5571;48.110;-1.706;2023-05-03T13:43:49;2.35;;;2.15;;
11034;SDS011;5571;48.110;-1.706;2023-05-03T13:46:14;3.95;;;2.42;;
11034;SDS011;5571;48.110;-1.706;2023-05-03T13:48:41;3.45;;;2.20;;
11034;SDS011;5571;48.110;-1.706;2023-05-03T13:51:07;2.75;;;2.47;;
11034;SDS011;5571;48.110;-1.706;2023-05-03T13:53:34;2.70;;;2.50;;
11034;SDS011;5571;48.110;-1.706;2023-05-03T13:56:00;5.72;;;2.50;;
11034;SDS011;5571;48.110;-1.706;2023-05-03T13:58:26;7.00;;;2.70;;
11034;SDS011;5571;48.110;-1.706;2023-05-03T14:00:52;4.20;;;2.50;;
11034;SDS011;5571;48.110;-1.706;2023-05-03T14:03:17;3.67;;;2.30;;
11034;SDS011;5571;48.110;-1.706;2023-05-03T14:05:43;5.15;;;2.40;;
11034;SDS011;5571;48.110;-1.706;2023-05-03T14:08:09;4.38;;;2.20;;
11034;SDS011;5571;48.110;-1.706;2023-05-03T14:10:34;5.68;;;1.95;;
11034;SDS011;5571;48.110;-1.706;2023-05-03T14:13:00;2.28;;;2.10;;
11034;SDS011;5571;48.110;-1.706;2023-05-03T14:15:27;3.33;;;2.50;;
11034;SDS011;5571;48.110;-1.706;2023-05-03T14:17:53;2.83;;;2.42;;
11034;SDS011;5571;48.110;-1.706;2023-05-03T14:20:18;4.60;;;2.38;;
11034;SDS011;5571;48.110;-1.706;2023-05-03T14:22:44;9.75;;;2.67;;
11034;SDS011;5571;48.110;-1.706;2023-05-03T14:25:10;7.68;;;2.53;;
11034;SDS011;5571;48.110;-1.706;2023-05-03T14:27:36;4.40;;;2.42;;
11034;SDS011;5571;48.110;-1.706;2023-05-03T14:30:02;6.50;;;2.38;;
11034;SDS011;5571;48.110;-1.706;2023-05-03T14:32:29;6.43;;;2.67;;
11034;SDS011;5571;48.110;-1.706;2023-05-03T14:34:55;5.30;;;2.10;;
11034;SDS011;5571;48.110;-1.706;2023-05-03T14:37:21;4.80;;;2.55;;
11034;SDS011;5571;48.110;-1.706;2023-05-03T14:39:46;6.53;;;2.13;;
11034;SDS011;5571;48.110;-1.706;2023-05-03T14:42:12;4.03;;;2.40;;
11034;SDS011;5571;48.110;-1.706;2023-05-03T14:44:38;3.95;;;2.22;;
11034;SDS011;5571;48.110;-1.706;2023-05-03T14:47:03;4.13;;;2.30;;
11034;SDS011;5571;48.110;-1.706;2023-05-03T14:49:31;4.95;;;2.40;;
11034;SDS011;5571;48.110;-1.706;2023-05-03T14:52:04;3.53;;;2.40;;
11034;SDS011;5571;48.110;-1.706;2023-05-03T14:54:31;6.82;;;2.10;;
11034;SDS011;5571;48.110;-1.706;2023-05-03T14:56:57;6.25;;;2.38;;
11034;SDS011;5571;48.110;-1.706;2023-05-03T14:59:23;3.15;;;2.00;;
11034;SDS011;5571;48.110;-1.706;2023-05-03T15:01:50;2.20;;;2.10;;
11034;SDS011;5571;48.110;-1.706;2023-05-03T15:04:16;5.50;;;3.05;;
11034;SDS011;5571;48.110;-1.706;2023-05-03T15:06:41;3.72;;;2.20;;
11034;SDS011;5571;48.110;-1.706;2023-05-03T15:09:08;3.72;;;2.20;;
11034;SDS011;5571;48.110;-1.706;2023-05-03T15:11:36;5.88;;;2.70;;
11034;SDS011;5571;48.110;-1.706;2023-05-03T15:14:02;2.90;;;2.40;;
11034;SDS011;5571;48.110;-1.706;2023-05-03T15:16:28;5.28;;;2.25;;